Time;durP1;ratioP1;P1;durP2;ratioP2;P2;SDS_P1;SDS_P2;PMS_P1;PMS_P2;Temp;Humidity;BMP_temperature;BMP_pressure;BME280_temperature;BME280_humidity;BME280_pressure;Samples;Min_cycle;Max_cycle;Signal;HPM_P1;HPM_P2
2020/12/30 00:02:00;;;;;;;1.93;1.50;;;2.60;98.00;;;;;;5050888;28;20456;-67
2020/12/30 00:04:26;;;;;;;1.30;1.20;;;2.60;98.00;;;;;;5048945;28;20460;-67
2020/12/30 00:06:53;;;;;;;1.40;1.20;;;2.50;98.00;;;;;;5050842;28;20499;-66
2020/12/30 00:09:20;;;;;;;1.30;1.20;;;2.40;98.00;;;;;;5048675;28;20505;-66
2020/12/30 00:11:46;;;;;;;2.67;1.57;;;2.20;98.00;;;;;;5050547;28;20481;-66
2020/12/30 00:14:13;;;;;;;2.90;2.00;;;2.10;98.00;;;;;;5048715;28;20484;-67
2020/12/30 00:16:39;;;;;;;1.50;1.37;;;2.10;98.00;;;;;;5051831;28;20465;-67
2020/12/30 00:19:07;;;;;;;1.57;1.30;;;2.20;98.00;;;;;;5052365;28;20794;-68
2020/12/30 00:21:34;;;;;;;1.20;1.13;;;2.20;98.00;;;;;;5054190;28;20485;-66
2020/12/30 00:24:00;;;;;;;1.40;1.30;;;2.00;98.00;;;;;;5052097;28;20548;-68
2020/12/30 00:26:27;;;;;;;3.30;2.03;;;2.30;98.00;;;;;;5054183;28;20472;-67
2020/12/30 00:28:53;;;;;;;1.30;1.13;;;2.20;98.00;;;;;;5052057;28;20472;-66
2020/12/30 00:31:20;;;;;;;11.67;4.40;;;2.00;98.00;;;;;;5054152;28;20518;-66
2020/12/30 00:33:46;;;;;;;1.20;1.00;;;1.90;98.00;;;;;;5052001;28;20493;-66
2020/12/30 00:36:14;;;;;;;1.20;1.00;;;1.80;98.00;;;;;;5054076;28;20472;-66
2020/12/30 00:38:43;;;;;;;1.20;1.00;;;1.80;98.00;;;;;;5051564;28;20460;-67
2020/12/30 00:41:13;;;;;;;1.13;0.90;;;1.80;98.00;;;;;;5053757;28;20492;-68
2020/12/30 00:43:40;;;;;;;1.83;1.20;;;1.90;98.00;;;;;;5051951;28;20498;-66
2020/12/30 00:46:13;;;;;;;1.30;1.10;;;2.00;98.00;;;;;;5053862;28;20812;-66
2020/12/30 00:48:39;;;;;;;1.30;1.20;;;1.90;98.00;;;;;;5051549;28;20492;-67
2020/12/30 00:51:06;;;;;;;1.10;1.00;;;1.90;98.00;;;;;;5053972;28;20457;-68
2020/12/30 00:53:33;;;;;;;1.20;1.00;;;2.00;98.00;;;;;;5051539;28;20473;-68
2020/12/30 00:56:00;;;;;;;1.30;1.20;;;2.10;98.00;;;;;;5053885;28;20469;-66
2020/12/30 00:58:27;;;;;;;1.20;1.00;;;2.10;98.00;;;;;;5050382;28;20476;-67
2020/12/30 01:00:53;;;;;;;2.67;2.07;;;2.00;98.00;;;;;;5052211;28;20945;-67
2020/12/30 01:03:20;;;;;;;1.20;1.00;;;2.00;98.00;;;;;;5050389;28;20449;-66
2020/12/30 01:05:47;;;;;;;2.33;1.47;;;2.10;98.00;;;;;;5053633;28;20810;-66
2020/12/30 01:08:13;;;;;;;1.60;1.57;;;2.10;98.00;;;;;;5051292;28;20469;-66
2020/12/30 01:10:41;;;;;;;1.20;1.00;;;2.10;98.00;;;;;;5053170;28;20457;-66
2020/12/30 01:13:08;;;;;;;1.20;1.20;;;2.00;98.00;;;;;;5051377;28;20456;-66
2020/12/30 01:15:34;;;;;;;1.10;1.00;;;2.00;98.00;;;;;;5053298;28;20821;-68
2020/12/30 01:18:01;;;;;;;1.20;1.00;;;2.10;98.00;;;;;;5051186;28;20874;-66
2020/12/30 01:20:27;;;;;;;1.20;1.00;;;2.10;98.00;;;;;;5053228;28;20512;-67
2020/12/30 01:22:54;;;;;;;1.10;1.00;;;2.20;98.00;;;;;;5050795;28;20469;-66
2020/12/30 01:25:21;;;;;;;1.17;0.93;;;2.30;98.00;;;;;;5053123;28;20885;-67
2020/12/30 01:27:48;;;;;;;1.20;0.90;;;2.30;98.00;;;;;;5049197;28;20445;-66
2020/12/30 01:30:16;;;;;;;1.20;1.13;;;2.30;98.00;;;;;;5052778;28;20890;-68
2020/12/30 01:32:43;;;;;;;1.20;1.00;;;2.50;98.00;;;;;;5049905;28;21021;-67
2020/12/30 01:35:09;;;;;;;1.20;1.10;;;2.60;98.00;;;;;;5052293;28;20472;-67
2020/12/30 01:37:36;;;;;;;2.50;1.20;;;2.60;98.00;;;;;;5051704;28;20598;-66
2020/12/30 01:40:04;;;;;;;1.20;1.00;;;2.50;98.00;;;;;;5051703;28;20488;-66
2020/12/30 01:42:41;;;;;;;1.30;1.00;;;2.40;98.00;;;;;;5052662;28;20460;-66
2020/12/30 01:45:08;;;;;;;1.20;0.90;;;2.50;98.00;;;;;;5053102;28;20465;-70
2020/12/30 01:47:35;;;;;;;1.10;0.90;;;2.50;98.00;;;;;;5052620;28;20842;-66
2020/12/30 01:50:03;;;;;;;1.83;1.83;;;2.40;98.00;;;;;;5051281;28;20928;-66
2020/12/30 01:52:30;;;;;;;1.10;0.90;;;2.50;98.00;;;;;;5052637;28;20461;-66
2020/12/30 01:54:58;;;;;;;1.13;1.00;;;2.70;98.00;;;;;;5050466;28;20460;-67
2020/12/30 01:57:24;;;;;;;1.40;1.30;;;2.80;98.00;;;;;;5051183;28;20469;-68
2020/12/30 01:59:51;;;;;;;1.20;1.00;;;2.80;98.00;;;;;;5050108;28;20990;-67
2020/12/30 02:02:22;;;;;;;1.20;1.00;;;2.70;98.00;;;;;;5052312;28;20531;-67
2020/12/30 02:04:52;;;;;;;1.10;0.90;;;2.70;98.00;;;;;;5050173;28;20453;-66
2020/12/30 02:07:19;;;;;;;1.30;1.03;;;2.60;98.00;;;;;;5052294;28;20462;-68
2020/12/30 02:09:46;;;;;;;1.20;1.10;;;2.70;98.00;;;;;;5049685;28;20952;-67
2020/12/30 02:12:14;;;;;;;1.20;1.00;;;2.70;98.00;;;;;;5052353;28;20465;-67
2020/12/30 02:14:41;;;;;;;1.73;1.13;;;2.70;98.00;;;;;;5049240;28;20554;-68
2020/12/30 02:17:12;;;;;;;1.13;0.90;;;2.80;98.00;;;;;;5051915;28;20519;-67
2020/12/30 02:19:39;;;;;;;1.83;1.27;;;2.70;98.00;;;;;;5049431;28;20543;-67
2020/12/30 02:22:08;;;;;;;1.50;1.10;;;2.70;98.00;;;;;;5051873;28;20983;-67
2020/12/30 02:24:36;;;;;;;1.10;0.90;;;2.70;98.00;;;;;;5049670;28;20534;-67
2020/12/30 02:27:04;;;;;;;1.20;0.90;;;2.60;98.00;;;;;;5051750;28;20454;-66
2020/12/30 02:29:32;;;;;;;2.13;1.40;;;2.40;98.00;;;;;;5049217;28;20456;-66
2020/12/30 02:31:59;;;;;;;1.17;1.00;;;2.40;98.00;;;;;;5051729;28;20485;-68
2020/12/30 02:34:25;;;;;;;1.57;1.20;;;2.60;98.00;;;;;;5049635;28;20912;-67
2020/12/30 02:36:52;;;;;;;1.10;0.90;;;2.60;98.00;;;;;;5051691;28;20465;-66
2020/12/30 02:39:20;;;;;;;1.27;1.10;;;2.50;98.00;;;;;;5049105;28;20457;-66
2020/12/30 02:41:48;;;;;;;1.67;1.33;;;2.40;98.00;;;;;;5051578;28;20490;-66
2020/12/30 02:44:15;;;;;;;1.20;1.00;;;2.30;98.00;;;;;;5049464;28;20473;-68
2020/12/30 02:46:43;;;;;;;1.20;1.00;;;2.10;98.00;;;;;;5050860;28;20936;-66
2020/12/30 02:49:09;;;;;;;1.50;1.20;;;2.20;98.00;;;;;;5049611;28;20466;-67
2020/12/30 02:51:41;;;;;;;1.10;1.00;;;2.10;98.00;;;;;;5051751;28;20461;-66
2020/12/30 02:54:07;;;;;;;1.20;1.20;;;2.20;98.00;;;;;;5049622;28;20458;-68
2020/12/30 02:56:34;;;;;;;1.20;1.00;;;2.20;98.00;;;;;;5051537;28;20457;-66
2020/12/30 02:59:02;;;;;;;1.37;1.10;;;2.30;98.00;;;;;;5049328;28;20445;-66
2020/12/30 03:01:28;;;;;;;1.33;1.10;;;2.30;98.00;;;;;;5051557;28;20492;-67
2020/12/30 03:03:55;;;;;;;1.13;0.90;;;2.30;98.00;;;;;;5047841;28;20461;-66
2020/12/30 03:06:24;;;;;;;1.20;1.10;;;2.20;98.00;;;;;;5051439;28;20464;-67
2020/12/30 03:08:51;;;;;;;1.10;0.90;;;2.20;98.00;;;;;;5049361;28;20461;-66
2020/12/30 03:11:18;;;;;;;1.10;0.90;;;2.20;98.00;;;;;;5051278;28;20483;-68
2020/12/30 03:13:44;;;;;;;1.10;0.90;;;2.30;98.00;;;;;;5049244;28;20951;-70
2020/12/30 03:16:11;;;;;;;1.10;1.00;;;2.30;98.00;;;;;;5051225;28;20493;-69
2020/12/30 03:18:38;;;;;;;1.30;1.10;;;2.20;98.00;;;;;;5048095;28;20461;-68
2020/12/30 03:21:05;;;;;;;1.10;0.90;;;2.10;98.00;;;;;;5051019;28;20511;-67
2020/12/30 03:23:31;;;;;;;1.57;1.10;;;2.00;98.00;;;;;;5049146;28;20472;-68
2020/12/30 03:25:58;;;;;;;1.20;1.00;;;2.10;98.00;;;;;;5051070;28;20468;-67
2020/12/30 03:28:24;;;;;;;1.20;1.00;;;2.10;98.00;;;;;;5049082;28;20882;-68
2020/12/30 03:30:51;;;;;;;1.10;0.90;;;2.30;98.00;;;;;;5051052;28;20464;-68
2020/12/30 03:33:18;;;;;;;1.10;0.93;;;2.20;98.00;;;;;;5048935;28;20466;-68
2020/12/30 03:35:45;;;;;;;1.10;0.90;;;2.10;98.00;;;;;;5050872;28;20465;-67
2020/12/30 03:38:11;;;;;;;1.10;0.90;;;2.30;98.00;;;;;;5048954;28;20458;-70
2020/12/30 03:40:38;;;;;;;1.17;1.00;;;2.10;98.00;;;;;;5050794;28;20485;-69
2020/12/30 03:43:04;;;;;;;1.10;0.90;;;2.00;98.00;;;;;;5048822;28;20465;-67
2020/12/30 03:45:31;;;;;;;1.10;1.00;;;2.00;98.00;;;;;;5050902;28;20465;-68
2020/12/30 03:47:58;;;;;;;1.10;1.00;;;2.00;98.00;;;;;;5048683;28;20464;-69
2020/12/30 03:50:27;;;;;;;1.20;1.00;;;2.00;98.00;;;;;;5051599;28;20449;-69
2020/12/30 03:52:54;;;;;;;1.20;1.20;;;2.00;98.00;;;;;;5052685;28;20865;-68
2020/12/30 03:55:20;;;;;;;1.10;0.90;;;2.00;98.00;;;;;;5054890;28;20844;-69
2020/12/30 03:57:47;;;;;;;1.10;1.00;;;2.10;98.00;;;;;;5053309;28;20958;-67
2020/12/30 04:00:13;;;;;;;1.40;1.10;;;2.10;98.00;;;;;;5053312;28;20484;-67
2020/12/30 04:02:40;;;;;;;1.10;0.90;;;2.20;98.00;;;;;;5054537;28;20519;-68
2020/12/30 04:05:08;;;;;;;1.20;1.10;;;2.30;98.00;;;;;;5052767;28;20458;-67
2020/12/30 04:07:35;;;;;;;1.10;0.90;;;2.40;98.00;;;;;;5054801;28;20460;-68
2020/12/30 04:10:02;;;;;;;1.20;1.00;;;2.40;98.00;;;;;;5052651;28;20462;-67
2020/12/30 04:12:29;;;;;;;1.10;0.90;;;2.30;98.00;;;;;;5053269;28;20475;-68
2020/12/30 04:14:56;;;;;;;1.10;1.00;;;2.30;98.00;;;;;;5052430;28;20531;-69
2020/12/30 04:17:22;;;;;;;1.10;0.90;;;2.20;98.00;;;;;;5053124;28;20523;-68
2020/12/30 04:19:50;;;;;;;1.10;0.90;;;2.20;98.00;;;;;;5052365;28;21066;-68
2020/12/30 04:22:16;;;;;;;1.10;1.00;;;2.20;98.00;;;;;;5054287;28;20493;-68
2020/12/30 04:24:45;;;;;;;1.80;1.17;;;2.20;98.00;;;;;;5052200;28;20509;-68
2020/12/30 04:27:11;;;;;;;1.10;0.90;;;2.20;98.00;;;;;;5054237;28;20460;-67
2020/12/30 04:29:38;;;;;;;1.40;1.23;;;2.20;98.00;;;;;;5052277;28;20832;-68
2020/12/30 04:32:05;;;;;;;1.10;0.90;;;2.20;98.00;;;;;;5054050;28;20506;-67
2020/12/30 04:34:31;;;;;;;1.10;0.90;;;2.10;98.00;;;;;;5052058;28;20467;-68
2020/12/30 04:36:58;;;;;;;1.10;0.90;;;2.10;98.00;;;;;;5053973;28;20468;-68
2020/12/30 04:39:25;;;;;;;1.10;0.90;;;2.00;98.00;;;;;;5052015;28;20456;-69
2020/12/30 04:41:54;;;;;;;1.10;0.90;;;2.00;98.00;;;;;;5054016;28;20481;-68
2020/12/30 04:44:21;;;;;;;1.10;0.90;;;1.90;98.00;;;;;;5051771;28;20510;-68
2020/12/30 04:46:49;;;;;;;1.20;1.00;;;1.90;98.00;;;;;;5053898;28;20478;-67
2020/12/30 04:49:16;;;;;;;1.20;1.00;;;2.00;98.00;;;;;;5051699;28;20461;-67
2020/12/30 04:51:44;;;;;;;1.10;0.90;;;2.10;98.00;;;;;;5053947;28;20453;-67
2020/12/30 04:54:12;;;;;;;1.20;1.17;;;2.10;98.00;;;;;;5051532;28;20874;-69
2020/12/30 04:56:58;;;;;;;1.10;0.90;;;2.10;98.00;;;;;;5053436;28;20457;-68
2020/12/30 04:59:29;;;;;;;1.13;0.90;;;2.30;98.00;;;;;;5051634;28;20472;-67
2020/12/30 05:02:04;;;;;;;1.20;0.90;;;2.10;98.00;;;;;;5052737;28;20484;-69
2020/12/30 05:04:32;;;;;;;1.20;1.00;;;1.90;98.00;;;;;;5051695;28;20456;-68
2020/12/30 05:07:06;;;;;;;1.20;0.90;;;1.80;98.00;;;;;;5053511;28;20456;-68
2020/12/30 05:09:38;;;;;;;1.90;1.40;;;1.70;98.00;;;;;;5051162;28;20465;-69
2020/12/30 05:12:11;;;;;;;1.10;1.00;;;1.70;98.00;;;;;;5053183;28;20469;-67
2020/12/30 05:14:39;;;;;;;1.10;0.90;;;1.60;98.00;;;;;;5051390;28;20810;-67
2020/12/30 05:17:06;;;;;;;1.20;1.00;;;1.50;98.00;;;;;;5053375;28;20824;-68
2020/12/30 05:19:32;;;;;;;1.17;1.00;;;1.40;98.00;;;;;;5051411;28;20460;-67
2020/12/30 05:21:59;;;;;;;1.20;1.00;;;1.30;98.00;;;;;;5052984;28;20820;-68
2020/12/30 05:24:27;;;;;;;1.20;1.00;;;1.40;98.00;;;;;;5051122;28;20465;-68
2020/12/30 05:26:54;;;;;;;1.20;1.00;;;1.40;98.00;;;;;;5053224;28;20476;-68
2020/12/30 05:29:22;;;;;;;1.20;1.00;;;1.30;98.00;;;;;;5051037;28;20465;-71
2020/12/30 05:31:52;;;;;;;1.67;1.33;;;1.30;98.00;;;;;;5053379;28;20460;-67
2020/12/30 05:34:19;;;;;;;1.10;0.90;;;1.30;98.00;;;;;;5051185;28;20472;-67
2020/12/30 05:36:47;;;;;;;1.10;0.90;;;1.40;98.00;;;;;;5053130;28;20942;-69
2020/12/30 05:39:21;;;;;;;1.20;1.10;;;1.50;98.00;;;;;;5050879;28;20460;-68
2020/12/30 05:41:48;;;;;;;1.10;0.90;;;1.50;98.00;;;;;;5052921;28;20495;-69
2020/12/30 05:44:18;;;;;;;1.20;1.00;;;1.60;98.00;;;;;;5049737;28;20522;-68
2020/12/30 05:46:47;;;;;;;1.10;0.90;;;1.70;98.00;;;;;;5052667;28;20448;-68
2020/12/30 05:49:32;;;;;;;1.67;1.30;;;1.70;98.00;;;;;;5050543;28;20452;-68
2020/12/30 05:51:59;;;;;;;1.20;1.07;;;1.80;98.00;;;;;;5052696;28;20460;-69
2020/12/30 05:54:26;;;;;;;1.20;1.07;;;1.70;98.00;;;;;;5050375;28;20504;-70
2020/12/30 05:56:52;;;;;;;1.10;1.00;;;1.70;98.00;;;;;;5052379;28;20896;-67
2020/12/30 05:59:21;;;;;;;1.10;0.97;;;1.80;98.00;;;;;;5050548;28;20460;-69
2020/12/30 06:01:50;;;;;;;1.20;0.90;;;1.70;98.00;;;;;;5052402;28;20519;-66
2020/12/30 06:04:19;;;;;;;1.10;0.90;;;1.70;98.00;;;;;;5050217;28;20483;-65
2020/12/30 06:06:46;;;;;;;1.10;0.90;;;1.70;98.00;;;;;;5052393;28;20492;-68
2020/12/30 06:09:17;;;;;;;1.10;1.00;;;1.60;98.00;;;;;;5050172;28;20935;-69
2020/12/30 06:11:52;;;;;;;1.20;1.10;;;1.70;98.00;;;;;;5052246;28;20457;-69
2020/12/30 06:14:20;;;;;;;1.10;0.90;;;1.70;98.00;;;;;;5048985;28;20795;-68
2020/12/30 06:16:48;;;;;;;1.10;1.00;;;1.70;98.00;;;;;;5052042;28;20465;-67
2020/12/30 06:19:15;;;;;;;1.10;1.00;;;1.80;98.00;;;;;;5049890;28;20471;-67
2020/12/30 06:21:43;;;;;;;1.10;0.90;;;1.90;98.00;;;;;;5052082;28;20495;-69
2020/12/30 06:24:13;;;;;;;1.17;1.00;;;1.90;98.00;;;;;;5049861;28;20457;-68
2020/12/30 06:26:40;;;;;;;2.17;1.30;;;1.90;98.00;;;;;;5051907;28;20456;-67
2020/12/30 06:29:12;;;;;;;1.10;0.90;;;1.80;98.00;;;;;;5049606;28;20464;-68
2020/12/30 06:31:47;;;;;;;1.10;0.90;;;1.60;98.00;;;;;;5051721;28;20464;-68
2020/12/30 06:34:15;;;;;;;1.10;0.90;;;1.50;98.00;;;;;;5049929;28;20464;-67
2020/12/30 06:36:42;;;;;;;1.10;1.00;;;1.40;98.00;;;;;;5052163;28;20460;-67
2020/12/30 06:39:19;;;;;;;1.10;0.90;;;1.50;98.00;;;;;;5049942;28;20846;-68
2020/12/30 06:42:00;;;;;;;1.60;1.07;;;1.60;98.00;;;;;;5051919;28;20510;-67
2020/12/30 06:44:37;;;;;;;1.10;1.00;;;1.70;98.00;;;;;;5049692;28;20465;-67
2020/12/30 06:47:04;;;;;;;1.10;1.00;;;2.10;98.00;;;;;;5051812;28;20462;-66
2020/12/30 06:49:31;;;;;;;1.10;1.03;;;2.10;98.00;;;;;;5049538;28;20537;-67
2020/12/30 06:51:58;;;;;;;1.10;0.90;;;2.20;98.00;;;;;;5051762;28;20937;-67
2020/12/30 06:54:46;;;;;;;1.10;0.90;;;2.20;98.00;;;;;;5049336;28;20466;-67
2020/12/30 06:57:39;;;;;;;1.20;1.00;;;2.20;98.00;;;;;;5051436;28;21203;-68
2020/12/30 07:00:38;;;;;;;1.10;0.90;;;2.30;98.00;;;;;;5049302;28;20472;-66
2020/12/30 07:03:14;;;;;;;1.10;0.90;;;2.30;98.00;;;;;;5051451;28;20511;-68
2020/12/30 07:05:42;;;;;;;1.10;0.90;;;2.30;98.00;;;;;;5051106;28;20951;-67
2020/12/30 07:08:09;;;;;;;1.17;1.00;;;2.10;98.00;;;;;;5050186;28;20457;-69
2020/12/30 07:10:53;;;;;;;1.10;1.00;;;1.90;98.00;;;;;;5049813;28;20456;-67
2020/12/30 07:13:28;;;;;;;1.10;0.90;;;1.80;98.00;;;;;;5048759;28;20562;-68
2020/12/30 07:16:14;;;;;;;1.20;1.10;;;2.00;98.00;;;;;;5051260;28;21023;-67
2020/12/30 07:18:47;;;;;;;1.50;1.30;;;2.10;98.00;;;;;;5048983;28;20551;-67
2020/12/30 07:21:16;;;;;;;1.20;0.90;;;2.00;98.00;;;;;;5050994;28;20525;-67
2020/12/30 07:23:45;;;;;;;1.20;1.00;;;1.80;98.00;;;;;;5048803;28;20835;-67
2020/12/30 07:26:19;;;;;;;1.20;1.00;;;1.80;98.00;;;;;;5053371;28;20518;-68
2020/12/30 07:28:46;;;;;;;1.10;0.90;;;1.80;98.00;;;;;;5053224;28;20464;-67
2020/12/30 07:31:14;;;;;;;1.10;0.90;;;1.70;98.00;;;;;;5055218;28;20460;-66
2020/12/30 07:33:41;;;;;;;1.10;0.90;;;1.50;98.00;;;;;;5052920;28;20563;-67
2020/12/30 07:36:08;;;;;;;1.20;1.00;;;1.50;98.00;;;;;;5055525;28;20967;-67
2020/12/30 07:38:53;;;;;;;1.13;1.00;;;1.50;98.00;;;;;;5053453;28;20457;-66
2020/12/30 07:41:24;;;;;;;1.10;1.10;;;1.60;98.00;;;;;;5055074;28;20528;-66
2020/12/30 07:43:52;;;;;;;1.10;1.00;;;1.70;98.00;;;;;;5053069;28;20518;-66
2020/12/30 07:46:20;;;;;;;1.10;1.00;;;1.80;98.00;;;;;;5054982;28;20561;-67
2020/12/30 07:48:47;;;;;;;1.10;1.00;;;1.80;98.00;;;;;;5052629;28;20483;-68
2020/12/30 07:51:14;;;;;;;1.10;0.90;;;1.90;98.00;;;;;;5054777;28;21130;-66
2020/12/30 07:53:41;;;;;;;1.10;0.90;;;2.10;98.00;;;;;;5052788;28;20496;-65
2020/12/30 07:56:23;;;;;;;1.30;1.20;;;2.10;98.00;;;;;;5054467;28;20464;-66
2020/12/30 07:58:50;;;;;;;1.23;1.07;;;2.30;98.00;;;;;;5052353;28;20475;-66
2020/12/30 08:01:17;;;;;;;1.20;0.90;;;2.40;98.00;;;;;;5054613;28;20488;-67
2020/12/30 08:03:43;;;;;;;1.10;0.90;;;2.40;98.00;;;;;;5052461;28;20553;-67
2020/12/30 08:06:10;;;;;;;1.20;1.00;;;2.30;98.00;;;;;;5054335;28;20468;-65
2020/12/30 08:08:42;;;;;;;1.10;0.90;;;2.30;98.00;;;;;;5052340;28;20921;-67
2020/12/30 08:11:08;;;;;;;2.60;1.40;;;2.30;98.00;;;;;;5054484;28;20461;-66
2020/12/30 08:13:38;;;;;;;1.10;0.90;;;2.30;98.00;;;;;;5052070;28;20464;-66
2020/12/30 08:16:09;;;;;;;1.20;1.10;;;2.30;98.00;;;;;;5054417;28;20463;-65
2020/12/30 08:18:36;;;;;;;1.20;1.00;;;2.20;98.00;;;;;;5052030;28;21054;-68
2020/12/30 08:21:11;;;;;;;1.40;1.20;;;2.20;98.00;;;;;;5053894;28;20507;-65
2020/12/30 08:23:37;;;;;;;1.50;1.20;;;2.20;98.00;;;;;;5052202;28;20469;-65
2020/12/30 08:26:05;;;;;;;1.10;0.90;;;2.30;98.00;;;;;;5053148;28;20483;-66
2020/12/30 08:28:32;;;;;;;1.20;1.00;;;2.30;98.00;;;;;;5052060;28;20471;-66
2020/12/30 08:31:03;;;;;;;1.20;1.10;;;2.50;98.00;;;;;;5054197;28;20453;-66
2020/12/30 08:33:31;;;;;;;1.10;0.90;;;2.60;98.00;;;;;;5052039;28;20453;-64
2020/12/30 08:36:15;;;;;;;1.10;1.00;;;2.60;98.00;;;;;;5054635;28;20457;-64
2020/12/30 08:38:44;;;;;;;2.30;1.67;;;2.70;98.00;;;;;;5051238;28;20516;-63
2020/12/30 08:41:16;;;;;;;1.10;1.00;;;3.00;98.00;;;;;;5054282;28;20870;-65
2020/12/30 08:43:44;;;;;;;1.10;0.90;;;3.80;98.00;;;;;;5051854;28;20977;-65
2020/12/30 08:46:19;;;;;;;1.40;1.30;;;5.10;98.00;;;;;;5054154;28;20552;-64
2020/12/30 08:48:48;;;;;;;2.37;1.50;;;5.10;98.00;;;;;;5051924;28;20453;-64
2020/12/30 08:51:31;;;;;;;1.20;1.00;;;5.10;98.00;;;;;;5053889;28;20453;-64
2020/12/30 08:53:58;;;;;;;1.20;1.03;;;4.80;98.00;;;;;;5049262;28;20476;-63
2020/12/30 08:56:24;;;;;;;1.30;1.30;;;4.40;98.00;;;;;;5053295;28;20468;-64
2020/12/30 08:58:55;;;;;;;2.27;1.57;;;4.40;98.00;;;;;;5050872;28;20543;-64
2020/12/30 09:01:24;;;;;;;1.20;1.10;;;4.20;98.00;;;;;;5052659;28;20518;-66
2020/12/30 09:03:52;;;;;;;3.20;1.53;;;4.20;98.00;;;;;;5051010;28;20486;-64
2020/12/30 09:06:29;;;;;;;1.20;1.00;;;4.20;98.00;;;;;;5053147;28;20466;-64
2020/12/30 09:09:07;;;;;;;1.20;1.10;;;4.00;98.00;;;;;;5050993;28;20826;-65
2020/12/30 09:11:34;;;;;;;2.30;1.40;;;3.80;98.00;;;;;;5051547;28;20513;-63
2020/12/30 09:14:15;;;;;;;1.50;1.13;;;3.70;98.00;;;;;;5050709;28;20458;-63
2020/12/30 09:16:53;;;;;;;1.20;1.00;;;3.60;98.00;;;;;;5052781;28;20457;-65
2020/12/30 09:19:20;;;;;;;1.20;1.00;;;3.60;98.00;;;;;;5050819;28;20511;-65
2020/12/30 09:21:47;;;;;;;1.20;1.00;;;3.70;98.00;;;;;;5052332;28;20481;-64
2020/12/30 09:24:14;;;;;;;1.17;1.00;;;3.90;98.00;;;;;;5050863;28;20462;-64
2020/12/30 09:26:40;;;;;;;1.10;1.00;;;3.80;98.00;;;;;;5052557;28;20461;-64
2020/12/30 09:29:17;;;;;;;2.40;1.20;;;3.80;98.00;;;;;;5050480;28;20465;-64
2020/12/30 09:31:53;;;;;;;1.30;1.00;;;3.90;98.00;;;;;;5052173;28;20961;-65
2020/12/30 09:34:19;;;;;;;1.20;1.10;;;3.90;98.00;;;;;;5050360;28;20482;-63
2020/12/30 09:36:57;;;;;;;1.30;1.10;;;3.80;98.00;;;;;;5052347;28;20458;-64
2020/12/30 09:39:25;;;;;;;1.20;1.00;;;3.80;98.00;;;;;;5049898;28;20461;-65
2020/12/30 09:42:01;;;;;;;1.20;1.00;;;3.90;98.00;;;;;;5050401;28;20494;-64
2020/12/30 09:44:29;;;;;;;1.20;1.00;;;3.80;98.00;;;;;;5049861;28;20519;-65
2020/12/30 09:46:57;;;;;;;1.40;1.27;;;3.80;98.00;;;;;;5052136;28;20889;-64
2020/12/30 09:49:24;;;;;;;1.20;1.00;;;3.90;98.00;;;;;;5049820;28;20457;-65
2020/12/30 09:51:56;;;;;;;1.30;1.10;;;3.90;98.00;;;;;;5051806;28;20528;-65
2020/12/30 09:54:23;;;;;;;1.20;1.10;;;4.00;98.00;;;;;;5049979;28;20464;-64
2020/12/30 09:56:50;;;;;;;1.50;1.00;;;3.90;98.00;;;;;;5052016;28;20480;-63
2020/12/30 09:59:20;;;;;;;1.20;1.00;;;3.90;98.00;;;;;;5050007;28;20469;-65
2020/12/30 10:01:48;;;;;;;1.73;1.20;;;4.00;98.00;;;;;;5051647;28;20582;-66
2020/12/30 10:04:16;;;;;;;1.20;0.90;;;4.00;98.00;;;;;;5050108;28;20482;-64
2020/12/30 10:06:46;;;;;;;1.20;0.90;;;4.00;98.00;;;;;;5052206;28;20457;-65
2020/12/30 10:09:12;;;;;;;1.93;1.27;;;4.10;98.00;;;;;;5049837;28;20457;-65
2020/12/30 10:11:39;;;;;;;1.10;0.90;;;4.50;98.00;;;;;;5051809;28;20458;-64
2020/12/30 10:14:05;;;;;;;1.40;1.27;;;4.90;98.00;;;;;;5049631;28;20456;-65
2020/12/30 10:16:32;;;;;;;1.50;1.30;;;4.90;98.00;;;;;;5051682;28;20486;-68
2020/12/30 10:18:59;;;;;;;1.20;1.00;;;4.80;98.00;;;;;;5048340;28;20451;-64
2020/12/30 10:21:30;;;;;;;1.23;1.10;;;4.60;98.00;;;;;;5051001;28;20529;-64
2020/12/30 10:23:57;;;;;;;1.20;1.00;;;4.60;98.00;;;;;;5047519;28;20454;-66
2020/12/30 10:26:24;;;;;;;2.03;1.40;;;4.60;98.00;;;;;;5051083;28;20469;-64
2020/12/30 10:28:50;;;;;;;1.20;0.97;;;4.70;98.00;;;;;;5049517;28;20964;-65
2020/12/30 10:31:17;;;;;;;1.30;1.30;;;4.80;98.00;;;;;;5051179;28;20450;-66
2020/12/30 10:33:44;;;;;;;1.20;1.00;;;4.90;98.00;;;;;;5049682;28;20461;-65
2020/12/30 10:36:11;;;;;;;1.20;1.03;;;5.00;98.00;;;;;;5051397;28;20481;-65
2020/12/30 10:38:38;;;;;;;1.20;1.00;;;4.90;98.00;;;;;;5049268;28;20458;-67
2020/12/30 10:41:05;;;;;;;1.20;1.00;;;5.10;98.00;;;;;;5050874;28;21229;-65
2020/12/30 10:43:31;;;;;;;1.20;1.00;;;5.20;98.00;;;;;;5049805;28;20462;-64
2020/12/30 10:45:58;;;;;;;1.33;1.07;;;5.20;98.00;;;;;;5051349;28;20563;-67
2020/12/30 10:48:24;;;;;;;1.20;1.00;;;5.10;98.00;;;;;;5049933;28;20466;-64
2020/12/30 10:50:51;;;;;;;1.40;1.37;;;5.10;98.00;;;;;;5048993;28;20481;-64
2020/12/30 10:53:18;;;;;;;1.20;1.00;;;5.00;98.00;;;;;;5050972;28;20858;-65
2020/12/30 10:55:45;;;;;;;1.90;1.30;;;4.90;98.00;;;;;;5049225;28;20454;-65
2020/12/30 10:58:12;;;;;;;1.20;1.10;;;4.60;98.00;;;;;;5050575;28;20515;-65
2020/12/30 11:00:38;;;;;;;1.20;0.90;;;4.50;98.00;;;;;;5047979;28;20458;-66
2020/12/30 11:03:05;;;;;;;1.20;1.00;;;4.60;98.00;;;;;;5050868;28;20860;-65
2020/12/30 11:05:31;;;;;;;1.20;1.00;;;4.60;98.00;;;;;;5049055;28;20453;-65
2020/12/30 11:07:58;;;;;;;1.33;1.10;;;4.80;98.00;;;;;;5050695;28;20461;-64
2020/12/30 11:10:24;;;;;;;1.30;1.27;;;4.80;98.00;;;;;;5048688;28;20498;-66
2020/12/30 11:12:55;;;;;;;1.43;1.10;;;4.70;98.00;;;;;;5050752;28;20463;-65
2020/12/30 11:15:21;;;;;;;1.20;1.00;;;4.70;98.00;;;;;;5047575;28;20453;-65
2020/12/30 11:17:48;;;;;;;1.20;0.90;;;4.90;98.00;;;;;;5049449;28;20826;-66
2020/12/30 11:20:15;;;;;;;1.20;1.00;;;4.90;98.00;;;;;;5048122;28;20490;-66
2020/12/30 11:22:42;;;;;;;1.40;1.10;;;5.00;98.00;;;;;;5050659;28;20483;-66
2020/12/30 11:25:08;;;;;;;2.13;1.33;;;5.30;98.00;;;;;;5048484;28;20470;-66
2020/12/30 11:27:36;;;;;;;1.30;1.10;;;5.40;98.00;;;;;;5050523;28;20458;-65
2020/12/30 11:30:03;;;;;;;1.20;1.00;;;5.70;98.00;;;;;;5048608;28;20466;-65
2020/12/30 11:32:32;;;;;;;1.30;1.10;;;5.80;98.00;;;;;;5050843;28;20470;-65
2020/12/30 11:35:00;;;;;;;1.20;1.10;;;5.90;98.00;;;;;;5048745;28;20815;-66
2020/12/30 11:37:26;;;;;;;1.20;0.97;;;5.90;98.00;;;;;;5051110;28;20465;-66
2020/12/30 11:39:53;;;;;;;1.20;1.00;;;6.10;98.00;;;;;;5048733;28;20462;-67
2020/12/30 11:42:21;;;;;;;1.53;1.40;;;6.30;98.00;;;;;;5050631;28;20482;-67
2020/12/30 11:44:48;;;;;;;1.40;1.20;;;6.40;98.00;;;;;;5048783;28;20458;-66
2020/12/30 11:47:15;;;;;;;2.03;1.53;;;6.50;98.00;;;;;;5050732;28;20470;-65
2020/12/30 11:49:42;;;;;;;1.20;1.00;;;6.60;98.00;;;;;;5048359;28;20450;-65
2020/12/30 11:52:11;;;;;;;1.40;1.10;;;6.60;98.00;;;;;;5050344;28;20465;-67
2020/12/30 11:54:38;;;;;;;1.20;1.00;;;6.40;98.00;;;;;;5047231;28;20534;-66
2020/12/30 11:57:04;;;;;;;1.20;1.00;;;6.20;98.00;;;;;;5050375;28;20475;-67
2020/12/30 11:59:31;;;;;;;1.20;1.00;;;6.30;98.00;;;;;;5048521;28;20460;-66
2020/12/30 12:01:58;;;;;;;1.20;1.00;;;6.30;98.00;;;;;;5049976;28;20485;-66
2020/12/30 12:04:26;;;;;;;1.20;1.00;;;6.30;98.00;;;;;;5046978;28;20452;-65
2020/12/30 12:06:57;;;;;;;1.20;1.00;;;6.40;98.00;;;;;;5050058;28;20458;-66
2020/12/30 12:09:24;;;;;;;1.30;1.00;;;6.40;98.00;;;;;;5048377;28;21086;-66
2020/12/30 12:11:50;;;;;;;1.20;1.20;;;6.40;98.00;;;;;;5051434;28;20863;-64
2020/12/30 12:14:18;;;;;;;1.20;1.00;;;6.30;98.00;;;;;;5052034;28;20451;-67
2020/12/30 12:16:50;;;;;;;1.20;1.00;;;6.30;98.00;;;;;;5053957;28;20500;-68
2020/12/30 12:19:17;;;;;;;1.20;1.00;;;6.70;98.00;;;;;;5051786;28;20545;-66
2020/12/30 12:21:45;;;;;;;1.20;0.90;;;7.40;98.00;;;;;;5053668;28;21009;-67
2020/12/30 12:24:12;;;;;;;1.20;1.00;;;7.50;98.00;;;;;;5051861;28;20955;-67
2020/12/30 12:26:39;;;;;;;1.20;1.00;;;7.60;98.00;;;;;;5053886;28;20510;-67
2020/12/30 12:29:34;;;;;;;1.20;1.00;;;7.30;98.00;;;;;;5051637;28;20499;-66
2020/12/30 12:32:01;;;;;;;1.20;1.00;;;7.10;98.00;;;;;;5053829;28;20510;-68
2020/12/30 12:34:28;;;;;;;1.43;1.10;;;7.00;98.00;;;;;;5051556;28;20515;-68
2020/12/30 12:36:55;;;;;;;1.20;1.00;;;7.00;98.00;;;;;;5054119;28;20838;-67
2020/12/30 12:39:22;;;;;;;1.20;1.00;;;6.80;98.00;;;;;;5051539;28;20461;-67
2020/12/30 12:41:50;;;;;;;1.20;0.90;;;6.80;98.00;;;;;;5052643;28;20566;-67
2020/12/30 12:44:20;;;;;;;2.80;1.93;;;6.70;98.00;;;;;;5051965;28;21000;-67
2020/12/30 12:46:47;;;;;;;1.30;1.10;;;6.60;98.00;;;;;;5052648;28;20495;-67
2020/12/30 12:49:17;;;;;;;1.20;0.90;;;6.50;98.00;;;;;;5049905;28;20452;-67
2020/12/30 12:51:46;;;;;;;2.40;1.63;;;6.40;98.00;;;;;;5052600;28;20467;-67
2020/12/30 12:54:17;;;;;;;1.20;1.00;;;6.40;98.00;;;;;;5050973;28;20612;-69
2020/12/30 12:56:45;;;;;;;1.20;0.90;;;6.40;98.00;;;;;;5052740;28;20460;-67
2020/12/30 12:59:15;;;;;;;1.20;1.00;;;6.30;98.00;;;;;;5051734;28;20479;-68
2020/12/30 13:01:46;;;;;;;1.20;1.00;;;6.30;98.00;;;;;;5052454;28;20545;-68
2020/12/30 13:04:13;;;;;;;1.20;1.00;;;6.30;98.00;;;;;;5051447;28;20468;-67
2020/12/30 13:06:40;;;;;;;1.20;1.00;;;6.20;98.00;;;;;;5052153;28;20510;-67